Aeroporto :
LOGIN :

Iscrizione | Disclaimer

   EN    FR    IT 

 










Sommario :    VFR   VFR Marginale   IFR   IFR Intensivo   IFR Molto Intensivo
Visibilità : 
Base nubi : 
>= 8 km
>= 3000ft
5 / 8 km
1000 / 3000 ft
1500m / 5 km
500 / 1000 ft
800 / 1500m
200 / 500 ft
< 800m
< 200 ft
Simboli :   Temporali  Nebbia  Neve Forte  Precipitazioni Forti  Vento > 20 kt
SIGMETs :   Varie  Temporali  Ghiacco  Turbolenza  Onda orograficha  Ceneri Vulcaniche






- Altitudine del aeroporto : 49 ft
- Codice IATA : GLZ


EHGR - Gilze-Rijen Airbase

ULTIMO METAR :
  • 021125Z AUTO VRB10KT 9999 BKN060 OVC220 23/11 Q1021 BLU NOSIG

METARs OBSOLETI :
  • 021055Z AUTO 18009KT 130V240 9999 SCT047 SCT054 BKN060 23/12 Q1021 BLU NOSIG
  • 021025Z AUTO 18010KT 130V270 9999 SCT047 SCT053 22/11 Q1021 BLU NOSIG
  • 020955Z AUTO 17007KT 080V220 9999 BKN043 BKN048 22/12 Q1021 BLU NOSIG
  • 020925Z AUTO 17006KT 110V240 9999 SCT230 21/10 Q1021 BLU NOSIG
  • 020855Z AUTO 17007KT 110V240 9999 SCT240 21/11 Q1021 BLU NOSIG
  • 020825Z AUTO 19004KT 140V260 9999 BKN240 20/10 Q1022 BLU NOSIG

Previsioni scadute.



MetMap, La meteo Aeronautica in un colpo d'occhio ! - Copyright ORBIFLY Dicembre 2007 - Disclaimer

ORBIFLY MET'MAP TEAM :

Programmazione e sviluppo : Alexandra Zaïnal
Concezione : Baudouin d'Aumeries
Supporto tecnico e logistico : Manuel Goepfert
Aiuto : Marc-Olivier Méhu
Aiuto per la traduzione : Arnaldo La Scala




FONTI E CREDITI :

   NOAA